Pays
Station

 

Conditions  météo  pour  Andravida Airport  -  Grèce    Grèce

  
13 °C
    
 
 

METAR pour Andravida Airport :

LGAD 232220Z VRB03KT 9999 FEW025 SCT080 13/10 Q1018

 

Voici le bulletin pour Andravida Airport - Grèce.
 
Le bulletin a été fait il y a 22 minutes, à 22:20 UTC .
Le vent soufflait à la vitesse de 1.5 mètres par seconde de direction variable.
 
La température était de 13 °C, avec un point de rosée à 10 °C.
La pression atmosphérique était de 1018 hPa.
L'humidité relative était de 82.0%.
 
Il y avait 1 à 2/8ème de nébulosité à une hauteur de 762 mètres et 3 à 4/8ème de nébulosité à une hauteur de 2438 mètres.
 
La visibilité globale était de supérieure à 10 kilomètres.
 

 
 
 

Pays :   A   B   C   D   E   F   G   H   I   J   K   L   M   N   O   P   Q   R   S   T   U   V   W   Y   Z

 

Partenaires :  Info Météo avec Met'info
Météo Marine avec MeteoMarine.net
Infos Site  |  Infos Légales  |  Crédits  |  Confidentialité
Contactez-nous  |  Ajouter aux favoris
© 2013-2019 METAR - Tous droits réservés